sensor_id;sensor_type;location;lat;lon;timestamp;P1;durP1;ratioP1;P2;durP2;ratioP2
51907;SDS011;39320;53.214;6.556;2023-04-03T00:01:31;1.27;;;1.17;;
51907;SDS011;39320;53.214;6.556;2023-04-03T00:03:56;2.25;;;1.67;;
51907;SDS011;39320;53.214;6.556;2023-04-03T00:06:22;2.63;;;1.80;;
51907;SDS011;39320;53.214;6.556;2023-04-03T00:08:48;1.42;;;1.33;;
51907;SDS011;39320;53.214;6.556;2023-04-03T00:11:15;1.52;;;1.33;;
51907;SDS011;39320;53.214;6.556;2023-04-03T00:13:41;2.58;;;1.50;;
51907;SDS011;39320;53.214;6.556;2023-04-03T00:16:07;2.00;;;1.42;;
51907;SDS011;39320;53.214;6.556;2023-04-03T00:18:35;2.92;;;1.63;;
51907;SDS011;39320;53.214;6.556;2023-04-03T00:21:01;1.75;;;1.38;;
51907;SDS011;39320;53.214;6.556;2023-04-03T00:23:27;3.28;;;1.20;;
51907;SDS011;39320;53.214;6.556;2023-04-03T00:25:56;2.08;;;1.23;;
51907;SDS011;39320;53.214;6.556;2023-04-03T00:28:22;2.08;;;1.27;;
51907;SDS011;39320;53.214;6.556;2023-04-03T00:30:48;1.88;;;1.48;;
51907;SDS011;39320;53.214;6.556;2023-04-03T00:33:15;2.08;;;1.30;;
51907;SDS011;39320;53.214;6.556;2023-04-03T00:35:41;1.60;;;1.40;;
51907;SDS011;39320;53.214;6.556;2023-04-03T00:38:07;2.10;;;1.60;;
51907;SDS011;39320;53.214;6.556;2023-04-03T00:40:37;2.17;;;1.80;;
51907;SDS011;39320;53.214;6.556;2023-04-03T00:43:13;5.03;;;1.65;;
51907;SDS011;39320;53.214;6.556;2023-04-03T00:45:42;1.65;;;1.33;;
51907;SDS011;39320;53.214;6.556;2023-04-03T00:48:12;1.95;;;1.45;;
51907;SDS011;39320;53.214;6.556;2023-04-03T00:50:42;1.45;;;1.35;;
51907;SDS011;39320;53.214;6.556;2023-04-03T00:53:11;3.13;;;1.42;;
51907;SDS011;39320;53.214;6.556;2023-04-03T00:55:40;1.80;;;1.60;;
51907;SDS011;39320;53.214;6.556;2023-04-03T00:58:07;3.90;;;1.48;;
51907;SDS011;39320;53.214;6.556;2023-04-03T01:00:35;1.55;;;1.45;;
51907;SDS011;39320;53.214;6.556;2023-04-03T01:03:05;1.60;;;1.35;;
51907;SDS011;39320;53.214;6.556;2023-04-03T01:05:31;2.60;;;1.73;;
51907;SDS011;39320;53.214;6.556;2023-04-03T01:07:57;2.08;;;1.42;;
51907;SDS011;39320;53.214;6.556;2023-04-03T01:10:24;1.92;;;1.50;;
51907;SDS011;39320;53.214;6.556;2023-04-03T01:12:51;4.30;;;1.85;;
51907;SDS011;39320;53.214;6.556;2023-04-03T01:15:19;1.70;;;1.60;;
51907;SDS011;39320;53.214;6.556;2023-04-03T01:25:40;2.63;;;1.40;;
51907;SDS011;39320;53.214;6.556;2023-04-03T01:28:11;3.15;;;1.83;;
51907;SDS011;39320;53.214;6.556;2023-04-03T01:33:29;1.88;;;1.73;;
51907;SDS011;39320;53.214;6.556;2023-04-03T01:35:55;2.70;;;1.83;;
51907;SDS011;39320;53.214;6.556;2023-04-03T01:38:21;2.05;;;1.77;;
51907;SDS011;39320;53.214;6.556;2023-04-03T01:40:47;2.72;;;2.08;;
51907;SDS011;39320;53.214;6.556;2023-04-03T01:43:12;4.57;;;2.30;;
51907;SDS011;39320;53.214;6.556;2023-04-03T01:45:38;3.58;;;1.88;;
51907;SDS011;39320;53.214;6.556;2023-04-03T01:48:04;3.20;;;1.90;;
51907;SDS011;39320;53.214;6.556;2023-04-03T01:50:30;1.95;;;1.65;;
51907;SDS011;39320;53.214;6.556;2023-04-03T01:52:56;1.90;;;1.50;;
51907;SDS011;39320;53.214;6.556;2023-04-03T01:55:22;1.98;;;1.58;;
51907;SDS011;39320;53.214;6.556;2023-04-03T01:57:47;2.40;;;1.25;;
51907;SDS011;39320;53.214;6.556;2023-04-03T02:00:13;4.95;;;1.98;;
51907;SDS011;39320;53.214;6.556;2023-04-03T02:02:39;2.47;;;1.85;;
51907;SDS011;39320;53.214;6.556;2023-04-03T02:05:05;3.38;;;1.80;;
51907;SDS011;39320;53.214;6.556;2023-04-03T02:07:31;1.90;;;1.67;;
51907;SDS011;39320;53.214;6.556;2023-04-03T02:09:57;1.67;;;1.55;;
51907;SDS011;39320;53.214;6.556;2023-04-03T02:12:23;2.90;;;2.28;;
51907;SDS011;39320;53.214;6.556;2023-04-03T02:14:49;3.20;;;1.85;;
51907;SDS011;39320;53.214;6.556;2023-04-03T02:17:15;3.97;;;1.92;;
51907;SDS011;39320;53.214;6.556;2023-04-03T02:19:41;1.95;;;1.60;;
51907;SDS011;39320;53.214;6.556;2023-04-03T02:22:06;2.55;;;2.00;;
51907;SDS011;39320;53.214;6.556;2023-04-03T02:24:32;4.28;;;2.03;;
51907;SDS011;39320;53.214;6.556;2023-04-03T02:26:58;4.53;;;2.30;;
51907;SDS011;39320;53.214;6.556;2023-04-03T02:29:24;3.55;;;2.13;;
51907;SDS011;39320;53.214;6.556;2023-04-03T02:31:50;2.10;;;1.67;;
51907;SDS011;39320;53.214;6.556;2023-04-03T02:34:16;4.53;;;1.80;;
51907;SDS011;39320;53.214;6.556;2023-04-03T02:36:42;2.83;;;2.40;;
51907;SDS011;39320;53.214;6.556;2023-04-03T02:39:07;2.17;;;1.80;;
51907;SDS011;39320;53.214;6.556;2023-04-03T02:41:34;2.70;;;1.90;;
51907;SDS011;39320;53.214;6.556;2023-04-03T02:44:01;2.35;;;2.10;;
51907;SDS011;39320;53.214;6.556;2023-04-03T02:46:27;3.33;;;1.98;;
51907;SDS011;39320;53.214;6.556;2023-04-03T02:48:53;2.88;;;1.88;;
51907;SDS011;39320;53.214;6.556;2023-04-03T02:51:19;2.67;;;2.03;;
51907;SDS011;39320;53.214;6.556;2023-04-03T02:53:45;3.22;;;1.90;;
51907;SDS011;39320;53.214;6.556;2023-04-03T02:56:10;2.38;;;2.17;;
51907;SDS011;39320;53.214;6.556;2023-04-03T02:58:36;1.95;;;1.85;;
51907;SDS011;39320;53.214;6.556;2023-04-03T03:01:02;2.97;;;1.88;;
51907;SDS011;39320;53.214;6.556;2023-04-03T03:03:28;2.55;;;2.20;;
51907;SDS011;39320;53.214;6.556;2023-04-03T03:06:04;2.70;;;2.10;;
51907;SDS011;39320;53.214;6.556;2023-04-03T03:08:35;4.00;;;1.83;;
51907;SDS011;39320;53.214;6.556;2023-04-03T03:11:01;4.28;;;1.77;;
51907;SDS011;39320;53.214;6.556;2023-04-03T03:13:28;3.00;;;1.83;;
51907;SDS011;39320;53.214;6.556;2023-04-03T03:15:54;4.20;;;2.38;;
51907;SDS011;39320;53.214;6.556;2023-04-03T03:18:20;5.63;;;2.45;;
51907;SDS011;39320;53.214;6.556;2023-04-03T03:20:46;2.13;;;2.03;;
51907;SDS011;39320;53.214;6.556;2023-04-03T03:23:11;2.65;;;1.67;;
51907;SDS011;39320;53.214;6.556;2023-04-03T03:25:38;2.58;;;2.38;;
51907;SDS011;39320;53.214;6.556;2023-04-03T03:28:04;4.03;;;2.38;;
51907;SDS011;39320;53.214;6.556;2023-04-03T03:30:30;2.42;;;2.22;;
51907;SDS011;39320;53.214;6.556;2023-04-03T03:32:56;3.95;;;2.20;;
51907;SDS011;39320;53.214;6.556;2023-04-03T03:35:22;2.55;;;2.22;;
51907;SDS011;39320;53.214;6.556;2023-04-03T03:37:47;4.70;;;2.50;;
51907;SDS011;39320;53.214;6.556;2023-04-03T03:40:13;2.35;;;1.95;;
51907;SDS011;39320;53.214;6.556;2023-04-03T03:42:39;3.45;;;2.20;;
51907;SDS011;39320;53.214;6.556;2023-04-03T03:45:05;3.28;;;2.60;;
51907;SDS011;39320;53.214;6.556;2023-04-03T03:47:31;5.35;;;2.40;;
51907;SDS011;39320;53.214;6.556;2023-04-03T03:49:57;3.92;;;2.28;;
51907;SDS011;39320;53.214;6.556;2023-04-03T03:52:23;2.20;;;2.00;;
51907;SDS011;39320;53.214;6.556;2023-04-03T03:54:49;3.30;;;2.05;;
51907;SDS011;39320;53.214;6.556;2023-04-03T03:57:14;3.65;;;2.35;;
51907;SDS011;39320;53.214;6.556;2023-04-03T03:59:40;2.83;;;2.30;;
51907;SDS011;39320;53.214;6.556;2023-04-03T04:02:07;2.55;;;2.17;;
51907;SDS011;39320;53.214;6.556;2023-04-03T04:04:33;3.05;;;2.30;;
51907;SDS011;39320;53.214;6.556;2023-04-03T04:06:59;4.28;;;2.35;;
51907;SDS011;39320;53.214;6.556;2023-04-03T04:09:25;3.85;;;2.20;;
51907;SDS011;39320;53.214;6.556;2023-04-03T04:11:51;2.45;;;2.00;;
51907;SDS011;39320;53.214;6.556;2023-04-03T04:14:18;3.85;;;2.38;;
51907;SDS011;39320;53.214;6.556;2023-04-03T04:16:45;3.00;;;2.30;;
51907;SDS011;39320;53.214;6.556;2023-04-03T04:19:12;4.18;;;2.35;;
51907;SDS011;39320;53.214;6.556;2023-04-03T04:21:38;2.70;;;2.30;;
51907;SDS011;39320;53.214;6.556;2023-04-03T04:24:04;3.75;;;2.45;;
51907;SDS011;39320;53.214;6.556;2023-04-03T04:26:30;3.15;;;2.53;;
51907;SDS011;39320;53.214;6.556;2023-04-03T04:28:56;2.92;;;2.63;;
51907;SDS011;39320;53.214;6.556;2023-04-03T04:31:22;2.85;;;1.98;;
51907;SDS011;39320;53.214;6.556;2023-04-03T04:33:48;2.95;;;2.53;;
51907;SDS011;39320;53.214;6.556;2023-04-03T04:36:13;5.00;;;2.10;;
51907;SDS011;39320;53.214;6.556;2023-04-03T04:38:40;3.10;;;2.70;;
51907;SDS011;39320;53.214;6.556;2023-04-03T04:41:06;2.50;;;2.30;;
51907;SDS011;39320;53.214;6.556;2023-04-03T04:43:32;4.38;;;3.08;;
51907;SDS011;39320;53.214;6.556;2023-04-03T04:46:04;4.70;;;2.50;;
51907;SDS011;39320;53.214;6.556;2023-04-03T04:48:35;2.63;;;2.42;;
51907;SDS011;39320;53.214;6.556;2023-04-03T04:51:01;4.68;;;2.22;;
51907;SDS011;39320;53.214;6.556;2023-04-03T04:53:27;4.10;;;2.45;;
51907;SDS011;39320;53.214;6.556;2023-04-03T04:55:53;3.00;;;2.70;;
51907;SDS011;39320;53.214;6.556;2023-04-03T04:58:19;2.60;;;2.17;;
51907;SDS011;39320;53.214;6.556;2023-04-03T05:00:45;3.47;;;2.25;;
51907;SDS011;39320;53.214;6.556;2023-04-03T05:03:11;6.28;;;3.20;;
51907;SDS011;39320;53.214;6.556;2023-04-03T05:05:37;5.97;;;3.42;;
51907;SDS011;39320;53.214;6.556;2023-04-03T05:08:04;4.50;;;2.75;;
51907;SDS011;39320;53.214;6.556;2023-04-03T05:10:30;6.88;;;2.63;;
51907;SDS011;39320;53.214;6.556;2023-04-03T05:12:56;4.10;;;2.80;;
51907;SDS011;39320;53.214;6.556;2023-04-03T05:15:22;6.22;;;3.10;;
51907;SDS011;39320;53.214;6.556;2023-04-03T05:17:48;3.63;;;2.95;;
51907;SDS011;39320;53.214;6.556;2023-04-03T05:20:14;4.47;;;2.90;;
51907;SDS011;39320;53.214;6.556;2023-04-03T05:22:40;4.75;;;3.33;;
51907;SDS011;39320;53.214;6.556;2023-04-03T05:25:06;2.55;;;2.35;;
51907;SDS011;39320;53.214;6.556;2023-04-03T05:27:32;3.58;;;2.80;;
51907;SDS011;39320;53.214;6.556;2023-04-03T05:29:58;3.85;;;2.63;;
51907;SDS011;39320;53.214;6.556;2023-04-03T05:32:25;3.00;;;2.60;;
51907;SDS011;39320;53.214;6.556;2023-04-03T05:34:54;3.78;;;2.45;;
51907;SDS011;39320;53.214;6.556;2023-04-03T05:37:20;3.45;;;2.25;;
51907;SDS011;39320;53.214;6.556;2023-04-03T05:39:46;4.18;;;2.22;;
51907;SDS011;39320;53.214;6.556;2023-04-03T05:42:11;3.22;;;2.95;;
51907;SDS011;39320;53.214;6.556;2023-04-03T05:44:38;3.65;;;2.53;;
51907;SDS011;39320;53.214;6.556;2023-04-03T05:47:05;5.50;;;2.65;;
51907;SDS011;39320;53.214;6.556;2023-04-03T05:49:31;4.47;;;2.72;;
51907;SDS011;39320;53.214;6.556;2023-04-03T05:51:57;3.70;;;2.65;;
51907;SDS011;39320;53.214;6.556;2023-04-03T05:54:24;2.63;;;2.42;;
51907;SDS011;39320;53.214;6.556;2023-04-03T05:56:52;3.40;;;2.50;;
51907;SDS011;39320;53.214;6.556;2023-04-03T05:59:18;3.00;;;2.70;;
51907;SDS011;39320;53.214;6.556;2023-04-03T06:01:44;2.97;;;2.50;;
51907;SDS011;39320;53.214;6.556;2023-04-03T06:04:10;5.75;;;3.10;;
51907;SDS011;39320;53.214;6.556;2023-04-03T06:06:47;5.03;;;2.88;;
51907;SDS011;39320;53.214;6.556;2023-04-03T06:09:14;4.45;;;2.75;;
51907;SDS011;39320;53.214;6.556;2023-04-03T06:11:41;3.90;;;2.92;;
51907;SDS011;39320;53.214;6.556;2023-04-03T06:14:07;4.78;;;3.00;;
51907;SDS011;39320;53.214;6.556;2023-04-03T06:16:34;4.38;;;2.50;;
51907;SDS011;39320;53.214;6.556;2023-04-03T06:18:59;3.25;;;2.40;;
51907;SDS011;39320;53.214;6.556;2023-04-03T06:21:26;3.10;;;2.55;;
51907;SDS011;39320;53.214;6.556;2023-04-03T06:23:52;2.72;;;2.42;;
51907;SDS011;39320;53.214;6.556;2023-04-03T06:26:18;3.58;;;2.72;;
51907;SDS011;39320;53.214;6.556;2023-04-03T06:28:44;3.78;;;3.35;;
51907;SDS011;39320;53.214;6.556;2023-04-03T06:31:09;4.07;;;2.58;;
51907;SDS011;39320;53.214;6.556;2023-04-03T06:33:35;2.85;;;2.65;;
51907;SDS011;39320;53.214;6.556;2023-04-03T06:36:03;3.78;;;2.70;;
51907;SDS011;39320;53.214;6.556;2023-04-03T06:38:30;4.78;;;2.50;;
51907;SDS011;39320;53.214;6.556;2023-04-03T06:40:57;3.33;;;2.20;;
51907;SDS011;39320;53.214;6.556;2023-04-03T06:43:23;3.30;;;2.53;;
51907;SDS011;39320;53.214;6.556;2023-04-03T06:45:49;4.38;;;2.72;;
51907;SDS011;39320;53.214;6.556;2023-04-03T06:48:15;6.85;;;2.53;;
51907;SDS011;39320;53.214;6.556;2023-04-03T06:50:41;5.28;;;2.75;;
51907;SDS011;39320;53.214;6.556;2023-04-03T06:53:08;3.75;;;2.50;;
51907;SDS011;39320;53.214;6.556;2023-04-03T06:55:34;4.13;;;3.08;;
51907;SDS011;39320;53.214;6.556;2023-04-03T06:58:00;3.63;;;2.50;;
51907;SDS011;39320;53.214;6.556;2023-04-03T07:00:26;3.42;;;2.90;;
51907;SDS011;39320;53.214;6.556;2023-04-03T07:02:53;3.42;;;2.75;;
51907;SDS011;39320;53.214;6.556;2023-04-03T07:05:18;4.53;;;2.60;;
51907;SDS011;39320;53.214;6.556;2023-04-03T07:07:44;4.05;;;3.03;;
51907;SDS011;39320;53.214;6.556;2023-04-03T07:10:10;3.42;;;2.20;;
51907;SDS011;39320;53.214;6.556;2023-04-03T07:12:36;3.97;;;2.70;;
51907;SDS011;39320;53.214;6.556;2023-04-03T07:15:03;5.97;;;3.13;;
51907;SDS011;39320;53.214;6.556;2023-04-03T07:17:30;6.22;;;2.75;;
51907;SDS011;39320;53.214;6.556;2023-04-03T07:19:56;4.28;;;2.45;;
51907;SDS011;39320;53.214;6.556;2023-04-03T07:22:22;2.97;;;2.33;;
51907;SDS011;39320;53.214;6.556;2023-04-03T07:24:48;5.03;;;3.00;;
51907;SDS011;39320;53.214;6.556;2023-04-03T07:27:13;6.75;;;2.92;;
51907;SDS011;39320;53.214;6.556;2023-04-03T07:29:39;3.97;;;3.08;;
51907;SDS011;39320;53.214;6.556;2023-04-03T07:32:05;4.65;;;2.97;;
51907;SDS011;39320;53.214;6.556;2023-04-03T07:34:32;3.22;;;2.50;;
51907;SDS011;39320;53.214;6.556;2023-04-03T07:36:58;4.97;;;2.60;;
51907;SDS011;39320;53.214;6.556;2023-04-03T07:39:25;2.95;;;2.65;;
51907;SDS011;39320;53.214;6.556;2023-04-03T07:41:51;2.75;;;2.03;;
51907;SDS011;39320;53.214;6.556;2023-04-03T07:44:17;5.10;;;2.80;;
51907;SDS011;39320;53.214;6.556;2023-04-03T07:46:43;3.92;;;2.70;;
51907;SDS011;39320;53.214;6.556;2023-04-03T07:49:08;3.72;;;2.95;;
51907;SDS011;39320;53.214;6.556;2023-04-03T07:51:34;4.95;;;2.88;;
51907;SDS011;39320;53.214;6.556;2023-04-03T07:54:00;3.20;;;2.60;;
51907;SDS011;39320;53.214;6.556;2023-04-03T07:56:26;3.65;;;3.10;;
51907;SDS011;39320;53.214;6.556;2023-04-03T07:58:52;3.88;;;2.45;;
51907;SDS011;39320;53.214;6.556;2023-04-03T08:01:18;2.67;;;2.47;;
51907;SDS011;39320;53.214;6.556;2023-04-03T08:03:44;3.53;;;2.53;;
51907;SDS011;39320;53.214;6.556;2023-04-03T08:06:10;5.18;;;2.22;;
51907;SDS011;39320;53.214;6.556;2023-04-03T08:08:36;4.88;;;2.67;;
51907;SDS011;39320;53.214;6.556;2023-04-03T08:11:02;6.07;;;2.70;;
51907;SDS011;39320;53.214;6.556;2023-04-03T08:13:30;5.55;;;2.38;;
51907;SDS011;39320;53.214;6.556;2023-04-03T08:15:56;5.43;;;2.97;;
51907;SDS011;39320;53.214;6.556;2023-04-03T08:18:24;9.32;;;2.80;;
51907;SDS011;39320;53.214;6.556;2023-04-03T08:20:51;4.28;;;2.40;;
51907;SDS011;39320;53.214;6.556;2023-04-03T08:23:17;3.00;;;2.67;;
51907;SDS011;39320;53.214;6.556;2023-04-03T08:25:43;2.85;;;2.47;;
51907;SDS011;39320;53.214;6.556;2023-04-03T08:28:10;3.22;;;2.45;;
51907;SDS011;39320;53.214;6.556;2023-04-03T08:30:40;5.80;;;2.92;;
51907;SDS011;39320;53.214;6.556;2023-04-03T08:33:07;4.00;;;3.35;;
51907;SDS011;39320;53.214;6.556;2023-04-03T08:35:37;3.60;;;2.33;;
51907;SDS011;39320;53.214;6.556;2023-04-03T08:38:07;3.88;;;2.28;;
51907;SDS011;39320;53.214;6.556;2023-04-03T08:40:34;5.75;;;2.15;;
51907;SDS011;39320;53.214;6.556;2023-04-03T08:45:55;2.37;;;1.80;;
51907;SDS011;39320;53.214;6.556;2023-04-03T08:48:41;2.47;;;1.92;;
51907;SDS011;39320;53.214;6.556;2023-04-03T08:51:15;2.47;;;1.75;;
51907;SDS011;39320;53.214;6.556;2023-04-03T08:53:50;2.35;;;1.90;;
51907;SDS011;39320;53.214;6.556;2023-04-03T08:56:24;2.80;;;1.98;;
51907;SDS011;39320;53.214;6.556;2023-04-03T08:58:52;3.38;;;2.15;;
51907;SDS011;39320;53.214;6.556;2023-04-03T09:01:26;2.25;;;1.55;;
51907;SDS011;39320;53.214;6.556;2023-04-03T09:04:05;5.95;;;2.30;;
51907;SDS011;39320;53.214;6.556;2023-04-03T09:06:38;2.85;;;1.80;;
51907;SDS011;39320;53.214;6.556;2023-04-03T09:17:32;3.13;;;1.85;;
51907;SDS011;39320;53.214;6.556;2023-04-03T09:22:55;2.70;;;2.30;;
51907;SDS011;39320;53.214;6.556;2023-04-03T09:25:31;3.40;;;1.90;;
51907;SDS011;39320;53.214;6.556;2023-04-03T09:28:01;2.95;;;1.88;;
51907;SDS011;39320;53.214;6.556;2023-04-03T09:30:27;3.58;;;2.00;;
51907;SDS011;39320;53.214;6.556;2023-04-03T09:32:55;2.17;;;1.98;;
51907;SDS011;39320;53.214;6.556;2023-04-03T09:35:28;2.40;;;1.70;;
51907;SDS011;39320;53.214;6.556;2023-04-03T09:37:59;2.17;;;1.98;;
51907;SDS011;39320;53.214;6.556;2023-04-03T09:40:34;2.97;;;2.08;;
51907;SDS011;39320;53.214;6.556;2023-04-03T09:45:53;3.88;;;1.70;;
51907;SDS011;39320;53.214;6.556;2023-04-03T09:48:23;1.60;;;1.42;;
51907;SDS011;39320;53.214;6.556;2023-04-03T09:53:30;2.47;;;2.20;;
51907;SDS011;39320;53.214;6.556;2023-04-03T09:56:00;4.65;;;2.17;;
51907;SDS011;39320;53.214;6.556;2023-04-03T09:58:29;2.55;;;2.13;;
51907;SDS011;39320;53.214;6.556;2023-04-03T10:00:59;4.18;;;1.70;;
51907;SDS011;39320;53.214;6.556;2023-04-03T10:05:58;7.50;;;1.95;;
51907;SDS011;39320;53.214;6.556;2023-04-03T10:11:12;4.55;;;2.00;;
51907;SDS011;39320;53.214;6.556;2023-04-03T10:13:54;5.18;;;1.80;;
51907;SDS011;39320;53.214;6.556;2023-04-03T10:21:58;2.47;;;1.48;;
51907;SDS011;39320;53.214;6.556;2023-04-03T10:30:24;1.52;;;1.40;;
51907;SDS011;39320;53.214;6.556;2023-04-03T10:33:00;2.45;;;1.05;;
51907;SDS011;39320;53.214;6.556;2023-04-03T10:40:57;1.48;;;1.25;;
51907;SDS011;39320;53.214;6.556;2023-04-03T10:43:43;1.20;;;1.10;;
51907;SDS011;39320;53.214;6.556;2023-04-03T10:46:27;1.85;;;1.75;;
51907;SDS011;39320;53.214;6.556;2023-04-03T10:49:05;3.00;;;1.52;;
51907;SDS011;39320;53.214;6.556;2023-04-03T10:59:18;1.17;;;1.08;;
51907;SDS011;39320;53.214;6.556;2023-04-03T11:01:48;1.08;;;1.00;;
51907;SDS011;39320;53.214;6.556;2023-04-03T11:04:17;3.60;;;1.55;;
51907;SDS011;39320;53.214;6.556;2023-04-03T11:06:48;2.30;;;1.60;;
51907;SDS011;39320;53.214;6.556;2023-04-03T11:09:24;3.53;;;1.65;;
51907;SDS011;39320;53.214;6.556;2023-04-03T11:12:00;3.03;;;1.63;;
51907;SDS011;39320;53.214;6.556;2023-04-03T11:14:33;1.92;;;1.40;;
51907;SDS011;39320;53.214;6.556;2023-04-03T11:17:05;4.45;;;1.55;;
51907;SDS011;39320;53.214;6.556;2023-04-03T11:19:57;1.30;;;1.02;;
51907;SDS011;39320;53.214;6.556;2023-04-03T11:25:29;1.50;;;1.40;;
51907;SDS011;39320;53.214;6.556;2023-04-03T11:28:03;2.72;;;1.20;;
51907;SDS011;39320;53.214;6.556;2023-04-03T11:35:42;1.50;;;1.40;;
51907;SDS011;39320;53.214;6.556;2023-04-03T11:38:21;1.27;;;0.97;;
51907;SDS011;39320;53.214;6.556;2023-04-03T11:41:02;1.45;;;1.33;;
51907;SDS011;39320;53.214;6.556;2023-04-03T11:43:30;2.58;;;1.45;;
51907;SDS011;39320;53.214;6.556;2023-04-03T11:46:06;2.88;;;1.42;;
51907;SDS011;39320;53.214;6.556;2023-04-03T11:53:42;1.10;;;1.00;;
51907;SDS011;39320;53.214;6.556;2023-04-03T12:01:47;2.00;;;1.33;;
51907;SDS011;39320;53.214;6.556;2023-04-03T12:04:19;1.55;;;1.35;;
51907;SDS011;39320;53.214;6.556;2023-04-03T12:07:00;3.78;;;1.40;;
51907;SDS011;39320;53.214;6.556;2023-04-03T12:14:55;2.20;;;1.55;;
51907;SDS011;39320;53.214;6.556;2023-04-03T12:17:37;2.05;;;1.13;;
51907;SDS011;39320;53.214;6.556;2023-04-03T12:20:20;1.98;;;1.38;;
51907;SDS011;39320;53.214;6.556;2023-04-03T12:23:30;2.45;;;1.30;;
51907;SDS011;39320;53.214;6.556;2023-04-03T12:28:42;2.00;;;1.40;;
51907;SDS011;39320;53.214;6.556;2023-04-03T12:31:10;1.88;;;1.50;;
51907;SDS011;39320;53.214;6.556;2023-04-03T12:33:58;1.20;;;1.10;;
51907;SDS011;39320;53.214;6.556;2023-04-03T12:36:42;1.55;;;1.02;;
51907;SDS011;39320;53.214;6.556;2023-04-03T12:45:36;2.45;;;1.50;;
51907;SDS011;39320;53.214;6.556;2023-04-03T12:47:42;1.33;;;1.23;;
51907;SDS011;39320;53.214;6.556;2023-04-03T12:50:20;3.35;;;1.35;;
51907;SDS011;39320;53.214;6.556;2023-04-03T12:53:05;3.33;;;1.50;;
51907;SDS011;39320;53.214;6.556;2023-04-03T12:55:36;1.95;;;1.35;;
51907;SDS011;39320;53.214;6.556;2023-04-03T13:00:45;1.95;;;1.33;;
51907;SDS011;39320;53.214;6.556;2023-04-03T13:03:20;1.73;;;1.20;;
51907;SDS011;39320;53.214;6.556;2023-04-03T13:05:49;1.35;;;1.25;;
51907;SDS011;39320;53.214;6.556;2023-04-03T13:08:15;1.85;;;1.08;;
51907;SDS011;39320;53.214;6.556;2023-04-03T13:11:01;1.67;;;1.30;;
51907;SDS011;39320;53.214;6.556;2023-04-03T13:13:29;1.30;;;1.20;;
51907;SDS011;39320;53.214;6.556;2023-04-03T13:15:55;1.42;;;1.33;;
51907;SDS011;39320;53.214;6.556;2023-04-03T13:18:22;1.73;;;1.17;;
51907;SDS011;39320;53.214;6.556;2023-04-03T13:20:48;1.90;;;0.98;;
51907;SDS011;39320;53.214;6.556;2023-04-03T13:23:15;1.83;;;1.00;;
51907;SDS011;39320;53.214;6.556;2023-04-03T13:25:45;1.08;;;0.95;;
51907;SDS011;39320;53.214;6.556;2023-04-03T13:28:13;1.30;;;1.20;;
51907;SDS011;39320;53.214;6.556;2023-04-03T13:30:54;1.00;;;1.00;;
51907;SDS011;39320;53.214;6.556;2023-04-03T13:33:30;1.73;;;1.20;;
51907;SDS011;39320;53.214;6.556;2023-04-03T13:36:21;2.22;;;1.00;;
51907;SDS011;39320;53.214;6.556;2023-04-03T13:38:58;1.20;;;1.10;;
51907;SDS011;39320;53.214;6.556;2023-04-03T13:41:26;2.65;;;1.25;;
51907;SDS011;39320;53.214;6.556;2023-04-03T13:49:40;1.75;;;1.10;;
51907;SDS011;39320;53.214;6.556;2023-04-03T13:52:27;1.30;;;1.20;;
51907;SDS011;39320;53.214;6.556;2023-04-03T13:55:51;1.80;;;1.50;;
51907;SDS011;39320;53.214;6.556;2023-04-03T13:57:58;1.73;;;1.25;;
51907;SDS011;39320;53.214;6.556;2023-04-03T14:02:57;2.95;;;1.23;;
51907;SDS011;39320;53.214;6.556;2023-04-03T14:05:24;2.83;;;1.70;;
51907;SDS011;39320;53.214;6.556;2023-04-03T14:07:50;2.30;;;1.45;;
51907;SDS011;39320;53.214;6.556;2023-04-03T14:10:17;2.40;;;1.02;;
51907;SDS011;39320;53.214;6.556;2023-04-03T14:12:43;2.25;;;1.73;;
51907;SDS011;39320;53.214;6.556;2023-04-03T14:15:18;4.53;;;1.90;;
51907;SDS011;39320;53.214;6.556;2023-04-03T14:17:52;2.55;;;1.55;;
51907;SDS011;39320;53.214;6.556;2023-04-03T14:20:19;1.70;;;1.30;;
51907;SDS011;39320;53.214;6.556;2023-04-03T14:22:47;1.35;;;1.25;;
51907;SDS011;39320;53.214;6.556;2023-04-03T14:25:15;2.30;;;1.40;;
51907;SDS011;39320;53.214;6.556;2023-04-03T14:27:42;1.80;;;1.50;;
51907;SDS011;39320;53.214;6.556;2023-04-03T14:30:15;2.53;;;1.63;;
51907;SDS011;39320;53.214;6.556;2023-04-03T14:32:51;2.33;;;1.38;;
51907;SDS011;39320;53.214;6.556;2023-04-03T14:35:18;3.55;;;1.70;;
51907;SDS011;39320;53.214;6.556;2023-04-03T14:37:44;2.90;;;1.52;;
51907;SDS011;39320;53.214;6.556;2023-04-03T14:40:16;4.03;;;1.70;;
51907;SDS011;39320;53.214;6.556;2023-04-03T14:42:44;2.08;;;1.50;;
51907;SDS011;39320;53.214;6.556;2023-04-03T14:45:12;2.70;;;1.33;;
51907;SDS011;39320;53.214;6.556;2023-04-03T14:47:46;1.58;;;1.35;;
51907;SDS011;39320;53.214;6.556;2023-04-03T14:50:24;1.80;;;1.50;;
51907;SDS011;39320;53.214;6.556;2023-04-03T14:52:53;1.25;;;1.15;;
51907;SDS011;39320;53.214;6.556;2023-04-03T14:55:21;1.90;;;1.60;;
51907;SDS011;39320;53.214;6.556;2023-04-03T14:57:49;2.33;;;1.20;;
51907;SDS011;39320;53.214;6.556;2023-04-03T15:00:16;2.03;;;1.55;;
51907;SDS011;39320;53.214;6.556;2023-04-03T15:02:43;2.17;;;1.20;;
51907;SDS011;39320;53.214;6.556;2023-04-03T15:05:10;2.95;;;1.50;;
51907;SDS011;39320;53.214;6.556;2023-04-03T15:07:48;2.03;;;1.30;;
51907;SDS011;39320;53.214;6.556;2023-04-03T15:10:23;1.98;;;1.10;;
51907;SDS011;39320;53.214;6.556;2023-04-03T15:12:52;2.15;;;1.38;;
51907;SDS011;39320;53.214;6.556;2023-04-03T15:15:18;2.53;;;1.80;;
51907;SDS011;39320;53.214;6.556;2023-04-03T15:17:45;2.45;;;1.65;;
51907;SDS011;39320;53.214;6.556;2023-04-03T15:20:26;2.28;;;1.55;;
51907;SDS011;39320;53.214;6.556;2023-04-03T15:22:52;2.30;;;1.75;;
51907;SDS011;39320;53.214;6.556;2023-04-03T15:25:18;1.70;;;1.60;;
51907;SDS011;39320;53.214;6.556;2023-04-03T15:27:44;1.67;;;1.23;;
51907;SDS011;39320;53.214;6.556;2023-04-03T15:30:14;1.45;;;1.17;;
51907;SDS011;39320;53.214;6.556;2023-04-03T15:32:41;1.73;;;1.63;;
51907;SDS011;39320;53.214;6.556;2023-04-03T15:35:07;1.55;;;1.38;;
51907;SDS011;39320;53.214;6.556;2023-04-03T15:37:33;1.38;;;1.20;;
51907;SDS011;39320;53.214;6.556;2023-04-03T15:39:59;2.90;;;1.50;;
51907;SDS011;39320;53.214;6.556;2023-04-03T15:42:25;1.60;;;1.10;;
51907;SDS011;39320;53.214;6.556;2023-04-03T15:44:51;1.60;;;1.23;;
51907;SDS011;39320;53.214;6.556;2023-04-03T15:47:16;2.05;;;1.48;;
51907;SDS011;39320;53.214;6.556;2023-04-03T15:49:42;2.17;;;1.40;;
51907;SDS011;39320;53.214;6.556;2023-04-03T15:52:08;3.58;;;1.10;;
51907;SDS011;39320;53.214;6.556;2023-04-03T15:54:34;3.08;;;1.13;;
51907;SDS011;39320;53.214;6.556;2023-04-03T15:57:00;3.28;;;1.50;;
51907;SDS011;39320;53.214;6.556;2023-04-03T15:59:26;2.45;;;1.45;;
51907;SDS011;39320;53.214;6.556;2023-04-03T16:01:54;1.35;;;1.20;;
51907;SDS011;39320;53.214;6.556;2023-04-03T16:04:20;2.05;;;1.40;;
51907;SDS011;39320;53.214;6.556;2023-04-03T16:06:46;1.75;;;1.45;;
51907;SDS011;39320;53.214;6.556;2023-04-03T16:09:12;3.22;;;1.63;;
51907;SDS011;39320;53.214;6.556;2023-04-03T16:11:38;2.63;;;1.65;;
51907;SDS011;39320;53.214;6.556;2023-04-03T16:14:06;1.50;;;1.40;;
51907;SDS011;39320;53.214;6.556;2023-04-03T16:16:32;3.35;;;1.65;;
51907;SDS011;39320;53.214;6.556;2023-04-03T16:18:58;2.00;;;1.20;;
51907;SDS011;39320;53.214;6.556;2023-04-03T16:21:24;1.30;;;1.20;;
51907;SDS011;39320;53.214;6.556;2023-04-03T16:23:51;1.80;;;1.45;;
51907;SDS011;39320;53.214;6.556;2023-04-03T16:26:17;3.50;;;1.50;;
51907;SDS011;39320;53.214;6.556;2023-04-03T16:28:43;2.30;;;1.00;;
51907;SDS011;39320;53.214;6.556;2023-04-03T16:31:09;1.20;;;1.05;;
51907;SDS011;39320;53.214;6.556;2023-04-03T16:33:35;2.90;;;1.33;;
51907;SDS011;39320;53.214;6.556;2023-04-03T16:36:02;1.33;;;1.20;;
51907;SDS011;39320;53.214;6.556;2023-04-03T16:38:29;1.70;;;1.60;;
51907;SDS011;39320;53.214;6.556;2023-04-03T16:40:55;1.30;;;1.20;;